Time;durP1;ratioP1;P1;durP2;ratioP2;P2;SDS_P1;SDS_P2;PMS_P1;PMS_P2;Temp;Humidity;BMP_temperature;BMP_pressure;BME280_temperature;BME280_humidity;BME280_pressure;Samples;Min_cycle;Max_cycle;Signal;HPM_P1;HPM_P2
2023/05/18 00:03:19;;;;;;;5.93;3.13;;;7.70;99.90;;;;;;12430358;28;20050;-35
2023/05/18 00:09:24;;;;;;;8.85;3.90;;;7.60;99.90;;;;;;12451632;28;20061;-35
2023/05/18 00:15:27;;;;;;;9.80;3.75;;;7.60;99.90;;;;;;12441809;28;20137;-35
2023/05/18 00:21:32;;;;;;;9.95;4.57;;;7.40;99.90;;;;;;12449748;28;20133;-35
2023/05/18 00:27:35;;;;;;;11.80;4.00;;;7.20;99.90;;;;;;12448904;28;20482;-34
2023/05/18 00:33:39;;;;;;;11.50;4.70;;;7.20;99.90;;;;;;12443535;28;20049;-35
2023/05/18 00:39:42;;;;;;;10.55;4.13;;;7.20;99.90;;;;;;12433092;28;20065;-35
2023/05/18 00:45:45;;;;;;;7.97;4.13;;;7.10;99.90;;;;;;12503165;28;20054;-35
2023/05/18 00:51:48;;;;;;;9.10;3.83;;;7.10;99.90;;;;;;12493425;28;20426;-35
2023/05/18 00:57:55;;;;;;;9.35;3.35;;;6.90;99.90;;;;;;12494984;28;20072;-35
2023/05/18 01:04:01;;;;;;;6.55;3.55;;;6.90;99.90;;;;;;12493002;28;20452;-35
2023/05/18 01:10:05;;;;;;;9.40;3.20;;;6.90;99.90;;;;;;12494046;28;20057;-34
2023/05/18 01:16:11;;;;;;;8.07;2.97;;;6.80;99.90;;;;;;12500871;28;20111;-34
2023/05/18 01:22:28;;;;;;;7.78;3.30;;;6.70;99.90;;;;;;12491991;28;20050;-35
2023/05/18 01:28:32;;;;;;;5.22;2.67;;;6.60;99.90;;;;;;12499944;28;20170;-35
2023/05/18 01:34:35;;;;;;;10.05;3.17;;;6.20;99.90;;;;;;12497783;28;20041;-34
2023/05/18 01:41:22;;;;;;;9.75;2.58;;;6.30;99.90;;;;;;12496377;28;20049;-35
2023/05/18 01:47:29;;;;;;;7.22;2.58;;;6.10;99.90;;;;;;12484284;28;20045;-35
2023/05/18 01:53:44;;;;;;;6.50;2.50;;;5.70;99.90;;;;;;12502306;28;20172;-35
2023/05/18 01:59:48;;;;;;;6.95;2.05;;;5.40;99.90;;;;;;12486018;28;20048;-34
2023/05/18 02:05:51;;;;;;;9.33;2.67;;;5.50;99.90;;;;;;12485399;28;20053;-34
2023/05/18 02:11:55;;;;;;;11.27;2.33;;;5.80;99.90;;;;;;12502655;28;20304;-35
2023/05/18 02:17:58;;;;;;;8.95;2.17;;;5.80;99.90;;;;;;12468532;28;20405;-34
2023/05/18 02:24:01;;;;;;;11.03;2.10;;;5.50;99.90;;;;;;12475870;28;20052;-35
2023/05/18 02:30:07;;;;;;;5.93;1.87;;;5.50;99.90;;;;;;12498949;28;20047;-36
2023/05/18 02:36:12;;;;;;;8.55;2.15;;;5.30;99.90;;;;;;12456615;28;20042;-35
2023/05/18 02:42:17;;;;;;;7.45;1.80;;;5.30;99.90;;;;;;12500150;28;20049;-35
2023/05/18 02:48:19;;;;;;;10.82;1.83;;;5.30;99.90;;;;;;12508845;28;20041;-35
2023/05/18 02:54:22;;;;;;;10.80;2.20;;;5.40;99.90;;;;;;12473973;28;20045;-35
2023/05/18 03:00:30;;;;;;;8.73;1.90;;;5.40;99.90;;;;;;12519163;28;20120;-34
2023/05/18 03:06:34;;;;;;;9.20;1.77;;;5.50;99.90;;;;;;12535746;28;20053;-34
2023/05/18 03:12:38;;;;;;;5.13;1.73;;;5.60;99.90;;;;;;12531182;28;20057;-35
2023/05/18 03:18:42;;;;;;;7.47;2.00;;;5.70;99.90;;;;;;12547397;28;20052;-34
2023/05/18 03:24:45;;;;;;;5.82;1.67;;;5.80;99.90;;;;;;12539049;28;20106;-35
2023/05/18 03:30:55;;;;;;;4.73;1.57;;;5.70;99.90;;;;;;12547407;28;20485;-35
2023/05/18 03:36:58;;;;;;;9.18;2.00;;;5.80;99.90;;;;;;12526584;28;20162;-35
2023/05/18 03:43:02;;;;;;;5.80;1.60;;;5.90;99.90;;;;;;12533287;28;20094;-35
2023/05/18 03:49:06;;;;;;;4.73;1.53;;;5.80;99.90;;;;;;12527330;28;20457;-35
2023/05/18 03:55:10;;;;;;;9.55;1.95;;;5.60;99.90;;;;;;12538788;28;20558;-35
2023/05/18 04:01:17;;;;;;;7.70;1.40;;;5.90;99.90;;;;;;12529591;28;20044;-35
2023/05/18 04:07:22;;;;;;;8.60;1.48;;;6.00;99.90;;;;;;12561537;28;20134;-35
2023/05/18 04:13:29;;;;;;;8.02;1.55;;;7.10;99.90;;;;;;12541592;28;20041;-37
2023/05/18 04:19:39;;;;;;;7.00;1.33;;;8.40;99.90;;;;;;12534287;28;20049;-36
2023/05/18 04:25:42;;;;;;;7.20;1.63;;;9.70;99.90;;;;;;12545311;28;20041;-36
2023/05/18 04:31:48;;;;;;;12.17;1.73;;;11.20;99.90;;;;;;12528614;28;20068;-38
2023/05/18 04:37:53;;;;;;;7.20;1.90;;;11.50;99.90;;;;;;12540880;28;20639;-36
2023/05/18 04:43:56;;;;;;;;;;;10.20;99.90;;;;;;12530993;28;20041;-37
2023/05/18 04:49:59;;;;;;;6.13;1.10;;;9.60;99.90;;;;;;12543543;28;19928;-37
2023/05/18 04:56:02;;;;;;;10.32;1.60;;;9.50;99.90;;;;;;12542993;28;20071;-36
2023/05/18 05:02:05;;;;;;;8.20;1.47;;;11.10;99.90;;;;;;12540805;28;20408;-36
2023/05/18 05:08:09;;;;;;;6.63;1.30;;;11.30;99.90;;;;;;12547492;28;20048;-37
2023/05/18 05:14:13;;;;;;;8.73;1.60;;;11.70;99.90;;;;;;12540293;28;20048;-36
2023/05/18 05:20:21;;;;;;;6.80;1.73;;;11.20;99.90;;;;;;12523882;28;20048;-37
2023/05/18 05:26:26;;;;;;;7.65;1.63;;;10.70;99.90;;;;;;12536618;28;20052;-37
2023/05/18 05:32:31;;;;;;;10.02;1.77;;;10.50;99.90;;;;;;12538922;28;20045;-37
2023/05/18 05:38:36;;;;;;;10.55;2.13;;;8.60;99.90;;;;;;12536181;28;20049;-37
2023/05/18 05:44:40;;;;;;;8.93;1.73;;;8.30;99.90;;;;;;12555856;28;20045;-37
2023/05/18 05:50:44;;;;;;;9.07;1.60;;;8.30;99.90;;;;;;12560836;28;20148;-36
2023/05/18 05:56:48;;;;;;;5.38;1.63;;;8.10;99.90;;;;;;12546138;28;20424;-37
2023/05/18 06:02:52;;;;;;;8.35;1.67;;;8.30;99.90;;;;;;12533281;28;20048;-37
2023/05/18 06:08:55;;;;;;;8.83;1.73;;;8.60;99.90;;;;;;12551840;28;20113;-37
2023/05/18 06:14:59;;;;;;;13.50;2.67;;;8.30;99.90;;;;;;12526522;28;20045;-37
2023/05/18 06:21:03;;;;;;;8.35;1.80;;;8.00;99.90;;;;;;12553720;28;20059;-36
2023/05/18 06:27:07;;;;;;;7.83;2.00;;;8.10;99.90;;;;;;12558861;28;20041;-37
2023/05/18 06:33:11;;;;;;;10.05;1.92;;;8.50;99.90;;;;;;12541406;28;20137;-37
2023/05/18 06:39:14;;;;;;;6.03;1.63;;;8.00;99.90;;;;;;12543396;28;20099;-37
2023/05/18 06:45:18;;;;;;;7.43;2.00;;;8.90;99.90;;;;;;12542840;28;20067;-37
2023/05/18 06:51:22;;;;;;;10.82;1.75;;;8.80;99.90;;;;;;12537855;28;20417;-37
2023/05/18 06:57:25;;;;;;;10.43;1.50;;;8.80;99.90;;;;;;12560912;28;20053;-37
2023/05/18 07:03:29;;;;;;;7.00;1.77;;;8.50;99.90;;;;;;12542473;28;20286;-38
2023/05/18 07:09:32;;;;;;;7.75;1.95;;;8.80;99.90;;;;;;12544452;28;20063;-37
2023/05/18 07:15:35;;;;;;;10.23;2.07;;;9.10;99.90;;;;;;12563502;28;20489;-37
2023/05/18 07:21:41;;;;;;;7.95;1.80;;;9.50;99.90;;;;;;12523977;28;20049;-37
2023/05/18 07:27:43;;;;;;;8.73;1.90;;;9.50;99.90;;;;;;12538136;28;20037;-37
2023/05/18 07:33:48;;;;;;;13.93;1.97;;;9.70;99.90;;;;;;12553998;28;20055;-37
2023/05/18 07:39:51;;;;;;;7.10;1.65;;;9.70;99.90;;;;;;12529165;28;20180;-38
2023/05/18 07:45:54;;;;;;;7.57;1.45;;;9.60;99.90;;;;;;12522246;28;20409;-38
2023/05/18 07:51:59;;;;;;;12.27;2.22;;;9.80;99.90;;;;;;12543133;28;20048;-37
2023/05/18 07:58:02;;;;;;;7.07;1.58;;;9.60;99.90;;;;;;12541753;28;20175;-38
2023/05/18 08:04:05;;;;;;;8.90;2.25;;;10.20;99.90;;;;;;12545749;28;20048;-39
2023/05/18 08:10:10;;;;;;;8.40;1.83;;;10.40;99.90;;;;;;12566706;28;20544;-37
2023/05/18 08:16:14;;;;;;;8.30;2.40;;;10.40;99.90;;;;;;12548077;28;20041;-37
2023/05/18 08:22:17;;;;;;;7.05;2.42;;;9.90;99.90;;;;;;12572542;28;20115;-37
2023/05/18 08:28:21;;;;;;;12.80;2.75;;;9.90;99.90;;;;;;12577990;28;20059;-38
2023/05/18 08:34:24;;;;;;;13.13;2.30;;;10.00;99.90;;;;;;12557531;28;20604;-38
2023/05/18 08:40:36;;;;;;;15.32;2.45;;;10.70;99.90;;;;;;12559269;28;20407;-38
2023/05/18 08:46:42;;;;;;;4.95;1.70;;;11.20;99.90;;;;;;12543519;28;20049;-38
2023/05/18 08:52:51;;;;;;;10.50;1.92;;;11.60;99.90;;;;;;12520261;28;20049;-38
2023/05/18 08:58:56;;;;;;;10.23;2.35;;;11.20;99.90;;;;;;12537194;28;20110;-38
2023/05/18 09:04:59;;;;;;;6.78;2.25;;;11.80;99.90;;;;;;12549532;28;20059;-38
2023/05/18 09:11:04;;;;;;;7.13;1.75;;;12.60;99.90;;;;;;12537381;28;20076;-38
2023/05/18 09:17:08;;;;;;;8.98;2.22;;;12.70;99.90;;;;;;12523948;28;20099;-38
2023/05/18 09:23:13;;;;;;;6.15;2.05;;;12.90;99.90;;;;;;12544679;28;20044;-39
2023/05/18 09:29:18;;;;;;;6.05;2.10;;;12.60;99.90;;;;;;12542981;28;20049;-39
2023/05/18 09:35:24;;;;;;;11.95;2.25;;;13.50;99.90;;;;;;12524659;28;20053;-39
2023/05/18 09:41:29;;;;;;;7.63;2.47;;;12.60;99.90;;;;;;12532541;28;20057;-38
2023/05/18 09:47:33;;;;;;;5.85;2.10;;;12.70;99.90;;;;;;12533794;28;20049;-38
2023/05/18 09:53:39;;;;;;;12.05;2.67;;;13.40;99.90;;;;;;12529103;28;20045;-39
2023/05/18 09:59:49;;;;;;;5.43;1.73;;;13.00;99.90;;;;;;12534019;28;20179;-39
2023/05/18 10:05:52;;;;;;;8.05;2.20;;;13.70;99.90;;;;;;12517343;28;20045;-38
2023/05/18 10:11:56;;;;;;;7.85;2.13;;;14.20;99.90;;;;;;12524797;28;20053;-39
2023/05/18 10:18:05;;;;;;;12.32;2.50;;;14.30;99.90;;;;;;12541700;28;20378;-39
2023/05/18 10:24:14;;;;;;;12.00;2.53;;;14.90;99.90;;;;;;12525452;28;20412;-39
2023/05/18 10:30:18;;;;;;;7.93;2.47;;;14.10;99.90;;;;;;12531205;28;20048;-38
2023/05/18 10:36:24;;;;;;;10.25;2.20;;;12.50;99.90;;;;;;12534897;28;20052;-40
2023/05/18 10:42:30;;;;;;;10.70;2.63;;;13.00;99.90;;;;;;12566677;28;20120;-38
2023/05/18 10:48:38;;;;;;;7.22;1.70;;;13.50;99.90;;;;;;12541578;28;20045;-39
2023/05/18 10:54:42;;;;;;;7.25;1.92;;;13.60;99.90;;;;;;12546351;28;20049;-38
2023/05/18 11:00:54;;;;;;;8.82;2.30;;;14.00;99.90;;;;;;12534135;28;20049;-39
2023/05/18 11:07:00;;;;;;;6.10;1.83;;;14.10;99.90;;;;;;12531404;28;20413;-39
2023/05/18 11:13:05;;;;;;;5.63;1.50;;;15.00;99.90;;;;;;12554248;28;20053;-40
2023/05/18 11:19:11;;;;;;;12.73;3.10;;;15.30;99.90;;;;;;12531455;28;20052;-40
2023/05/18 11:25:27;;;;;;;7.32;2.65;;;15.20;99.90;;;;;;12522697;28;20555;-40
2023/05/18 11:31:44;;;;;;;10.25;3.22;;;15.10;99.90;;;;;;12531989;28;20049;-39
2023/05/18 11:37:48;;;;;;;5.15;1.60;;;14.50;99.90;;;;;;12519385;28;20045;-39
2023/05/18 11:44:19;;;;;;;9.63;2.80;;;15.30;99.90;;;;;;12514937;28;20053;-38
2023/05/18 11:50:23;;;;;;;5.97;2.00;;;16.00;99.90;;;;;;12546588;28;20065;-40
2023/05/18 11:56:32;;;;;;;8.98;2.15;;;16.10;99.90;;;;;;12543217;28;20048;-39
2023/05/18 12:02:37;;;;;;;8.27;1.83;;;14.80;99.90;;;;;;12522932;28;20421;-38
2023/05/18 12:08:42;;;;;;;11.98;2.83;;;15.30;99.90;;;;;;12518460;28;20409;-39
2023/05/18 12:14:58;;;;;;;9.40;2.38;;;16.10;99.90;;;;;;12507756;28;20041;-38
2023/05/18 12:21:04;;;;;;;7.97;2.05;;;15.70;99.90;;;;;;12526835;28;20049;-38
2023/05/18 12:27:11;;;;;;;10.38;2.40;;;16.00;99.90;;;;;;12512731;28;20094;-38
2023/05/18 12:33:16;;;;;;;11.13;2.60;;;15.30;99.90;;;;;;12505101;28;20091;-38
2023/05/18 12:39:20;;;;;;;6.75;2.08;;;14.60;99.90;;;;;;12520620;28;20083;-37
2023/05/18 12:45:27;;;;;;;9.45;2.65;;;15.00;99.90;;;;;;12530346;28;20037;-38
2023/05/18 12:51:38;;;;;;;7.40;2.00;;;14.90;99.90;;;;;;12532147;28;20053;-38
2023/05/18 12:57:44;;;;;;;10.48;2.17;;;15.80;99.90;;;;;;12531440;28;20459;-38
2023/05/18 13:03:54;;;;;;;;;;;15.40;99.90;;;;;;12537246;28;20049;-38
2023/05/18 13:10:12;;;;;;;7.07;2.30;;;14.20;99.90;;;;;;12531594;28;19921;-38
2023/05/18 13:16:17;;;;;;;12.65;2.80;;;14.70;99.90;;;;;;12540156;28;20049;-37
2023/05/18 13:22:31;;;;;;;12.40;2.40;;;15.40;99.90;;;;;;12543725;28;20041;-37
2023/05/18 13:28:34;;;;;;;8.63;2.42;;;14.80;99.90;;;;;;12535447;28;20064;-37
2023/05/18 13:34:37;;;;;;;8.20;2.33;;;14.90;99.90;;;;;;12553483;28;20041;-38
2023/05/18 13:40:41;;;;;;;7.82;2.15;;;15.60;99.90;;;;;;12533742;28;20049;-38
2023/05/18 13:46:45;;;;;;;7.35;2.20;;;16.10;99.90;;;;;;12523407;28;20057;-38
2023/05/18 13:52:50;;;;;;;8.20;2.35;;;15.70;99.90;;;;;;12539669;28;20088;-38
2023/05/18 13:58:52;;;;;;;8.90;2.30;;;14.80;99.90;;;;;;12539210;28;20091;-38
2023/05/18 14:04:57;;;;;;;12.02;2.40;;;15.20;99.90;;;;;;12536780;28;20044;-38
2023/05/18 14:11:03;;;;;;;;;;;15.30;99.90;;;;;;12538941;28;20080;-38
2023/05/18 14:17:06;;;;;;;8.15;2.33;;;15.10;99.90;;;;;;12539940;28;20344;-38
2023/05/18 14:23:12;;;;;;;6.50;2.00;;;14.90;99.90;;;;;;12531956;28;20408;-39
2023/05/18 14:29:16;;;;;;;10.90;2.08;;;15.30;99.90;;;;;;12552103;28;20127;-37
2023/05/18 14:35:18;;;;;;;9.52;2.28;;;15.10;99.90;;;;;;12543738;28;20631;-38
2023/05/18 14:41:21;;;;;;;7.70;2.83;;;15.10;99.90;;;;;;12527557;28;20469;-38
2023/05/18 14:47:25;;;;;;;7.95;2.15;;;14.90;99.90;;;;;;12548418;28;20120;-39
2023/05/18 14:53:28;;;;;;;9.18;1.98;;;15.40;99.90;;;;;;12554473;28;20045;-38
2023/05/18 14:59:31;;;;;;;5.63;1.95;;;15.10;99.90;;;;;;12551509;28;20400;-38
2023/05/18 15:05:34;;;;;;;9.82;1.95;;;14.90;99.90;;;;;;12547264;28;20049;-38
2023/05/18 15:11:38;;;;;;;6.97;1.90;;;14.70;99.90;;;;;;12551448;28;20055;-38
2023/05/18 15:17:42;;;;;;;8.15;2.30;;;15.40;99.90;;;;;;12543770;28;20053;-38
2023/05/18 15:23:44;;;;;;;8.60;2.05;;;15.10;99.90;;;;;;12549594;28;20045;-38
2023/05/18 15:29:48;;;;;;;6.28;1.58;;;15.40;99.90;;;;;;12526286;28;20057;-38
2023/05/18 15:35:51;;;;;;;8.05;1.85;;;14.90;99.90;;;;;;12539328;28;20049;-38
2023/05/18 15:41:55;;;;;;;9.10;1.73;;;15.00;99.90;;;;;;12527651;28;20041;-39
2023/05/18 15:47:57;;;;;;;5.45;1.73;;;15.40;99.90;;;;;;12539601;28;20045;-38
2023/05/18 15:54:01;;;;;;;8.90;2.27;;;15.20;99.90;;;;;;12535609;28;20060;-39
2023/05/18 16:00:05;;;;;;;7.32;1.75;;;15.20;99.90;;;;;;12526071;28;20401;-39
2023/05/18 16:06:07;;;;;;;8.82;1.90;;;15.30;99.90;;;;;;12487007;28;20068;-39
2023/05/18 16:12:13;;;;;;;6.93;2.05;;;15.10;99.90;;;;;;12499955;28;20079;-40
2023/05/18 16:18:16;;;;;;;10.88;2.00;;;15.20;99.90;;;;;;12479807;28;20057;-39
2023/05/18 16:24:20;;;;;;;6.20;1.92;;;15.30;99.90;;;;;;12480199;28;20044;-39
2023/05/18 16:30:24;;;;;;;7.90;2.10;;;14.90;99.90;;;;;;12500491;28;20057;-38
2023/05/18 16:36:30;;;;;;;7.45;1.98;;;14.80;99.90;;;;;;12494096;28;20482;-38
2023/05/18 16:42:34;;;;;;;5.88;1.90;;;14.90;99.90;;;;;;12498656;28;20103;-38
2023/05/18 16:48:37;;;;;;;8.02;1.73;;;15.20;99.90;;;;;;12458501;28;20041;-39
2023/05/18 16:54:42;;;;;;;9.18;1.88;;;15.30;99.90;;;;;;12485203;28;20231;-39
2023/05/18 17:00:45;;;;;;;5.38;2.00;;;15.20;99.90;;;;;;12489380;28;20076;-39
2023/05/18 17:06:50;;;;;;;7.03;2.05;;;15.10;99.90;;;;;;12499250;28;20045;-39
2023/05/18 17:12:55;;;;;;;;;;;15.10;99.90;;;;;;12514802;28;20089;-40
2023/05/18 17:18:59;;;;;;;5.22;2.00;;;15.30;99.90;;;;;;12549062;28;20395;-38
2023/05/18 17:25:06;;;;;;;7.95;2.17;;;15.30;99.90;;;;;;12538051;28;20386;-39
2023/05/18 17:31:09;;;;;;;7.40;1.77;;;15.60;99.90;;;;;;12536352;28;20049;-39
2023/05/18 17:37:12;;;;;;;5.97;1.77;;;15.60;99.90;;;;;;12546291;28;20076;-39
2023/05/18 17:43:16;;;;;;;5.73;1.97;;;16.00;99.90;;;;;;12544252;28;20049;-39
2023/05/18 17:49:20;;;;;;;10.93;2.00;;;16.10;99.90;;;;;;12528861;28;20045;-39
2023/05/18 17:55:23;;;;;;;;;;;15.80;99.90;;;;;;12542848;28;20064;-40
2023/05/18 18:01:30;;;;;;;10.00;2.07;;;15.20;99.90;;;;;;12544669;28;20035;-39
2023/05/18 18:07:33;;;;;;;6.07;2.00;;;14.80;99.90;;;;;;12521582;28;20054;-40
2023/05/18 18:13:40;;;;;;;7.97;1.98;;;14.50;99.90;;;;;;12475242;28;20106;-39
2023/05/18 18:19:48;;;;;;;6.68;2.00;;;14.20;99.90;;;;;;12495723;28;20456;-39
2023/05/18 18:25:56;;;;;;;5.38;2.10;;;14.00;99.90;;;;;;12485274;28;20610;-40
2023/05/18 18:32:10;;;;;;;5.57;1.75;;;14.00;99.90;;;;;;12491784;28;20085;-39
2023/05/18 18:38:16;;;;;;;7.22;1.95;;;13.70;99.90;;;;;;12469972;28;20073;-39
2023/05/18 18:44:25;;;;;;;8.38;1.90;;;13.70;99.90;;;;;;12487181;28;20409;-39
2023/05/18 18:50:35;;;;;;;8.52;2.25;;;13.50;99.90;;;;;;12501624;28;20045;-40
2023/05/18 18:56:43;;;;;;;6.60;2.40;;;13.40;99.90;;;;;;12493007;28;20422;-39
2023/05/18 19:02:53;;;;;;;9.23;2.42;;;13.30;99.90;;;;;;12493855;28;20141;-39
2023/05/18 19:09:03;;;;;;;5.55;2.10;;;13.20;99.90;;;;;;12483993;28;20079;-39
2023/05/18 19:15:12;;;;;;;5.97;1.77;;;13.00;99.90;;;;;;12495010;28;20049;-38
2023/05/18 19:21:15;;;;;;;5.38;2.00;;;12.80;99.90;;;;;;12529781;28;20045;-38
2023/05/18 19:27:19;;;;;;;10.38;2.05;;;12.80;99.90;;;;;;12543651;28;20045;-37
2023/05/18 19:33:24;;;;;;;9.75;2.08;;;12.80;99.90;;;;;;12548289;28;20055;-39
2023/05/18 19:39:27;;;;;;;5.13;2.03;;;12.80;99.90;;;;;;12537360;28;20055;-37
2023/05/18 19:45:32;;;;;;;7.57;2.20;;;12.60;99.90;;;;;;12524104;28;20501;-38
2023/05/18 19:51:44;;;;;;;4.85;2.10;;;12.30;99.90;;;;;;12543323;28;20075;-38
2023/05/18 19:57:47;;;;;;;5.13;2.20;;;12.10;99.90;;;;;;12543967;28;20115;-37
2023/05/18 20:03:57;;;;;;;10.10;2.57;;;11.90;99.90;;;;;;12552269;28;20049;-38
2023/05/18 20:10:01;;;;;;;9.50;1.60;;;11.80;99.90;;;;;;12509557;28;20064;-39
2023/05/18 20:16:06;;;;;;;6.53;2.22;;;11.80;99.90;;;;;;12495115;28;20061;-39
2023/05/18 20:22:09;;;;;;;7.45;2.20;;;11.70;99.90;;;;;;12486787;28;20052;-38
2023/05/18 20:28:13;;;;;;;5.20;1.95;;;11.70;99.90;;;;;;12493203;28;20482;-39
2023/05/18 20:34:16;;;;;;;7.40;2.45;;;11.70;99.90;;;;;;12480304;28;20045;-38
2023/05/18 20:40:19;;;;;;;4.75;1.63;;;11.70;99.90;;;;;;12469700;28;20045;-38
2023/05/18 20:46:23;;;;;;;7.20;1.88;;;11.70;99.90;;;;;;12479133;28;20041;-37
2023/05/18 20:52:28;;;;;;;7.57;2.13;;;11.50;99.90;;;;;;12495972;28;20071;-37
2023/05/18 20:58:32;;;;;;;6.05;1.80;;;11.10;99.90;;;;;;12492030;28;20140;-37
2023/05/18 21:04:35;;;;;;;7.88;1.77;;;11.10;99.90;;;;;;12468404;28;20081;-36
2023/05/18 21:10:39;;;;;;;5.60;1.97;;;11.20;99.90;;;;;;12541752;28;20053;-37
2023/05/18 21:16:41;;;;;;;6.63;2.15;;;11.10;99.90;;;;;;12512914;28;20622;-37
2023/05/18 21:22:53;;;;;;;8.57;2.33;;;11.20;99.90;;;;;;12519325;28;20532;-37
2023/05/18 21:28:57;;;;;;;5.70;1.90;;;11.20;99.90;;;;;;12516385;28;20067;-38
2023/05/18 21:35:00;;;;;;;7.50;1.80;;;11.20;99.90;;;;;;12528383;28;20539;-37
2023/05/18 21:41:03;;;;;;;5.27;1.93;;;11.00;99.90;;;;;;12521856;28;20048;-37
2023/05/18 21:47:06;;;;;;;5.15;1.85;;;11.00;99.90;;;;;;12537079;28;20499;-37
2023/05/18 21:53:09;;;;;;;6.47;2.40;;;10.90;99.90;;;;;;12531019;28;20053;-37
2023/05/18 21:59:13;;;;;;;7.68;2.13;;;10.70;99.90;;;;;;12538716;28;20132;-37
2023/05/18 22:05:17;;;;;;;6.00;1.87;;;10.80;99.90;;;;;;12506290;28;20041;-38
2023/05/18 22:11:20;;;;;;;5.55;2.03;;;10.80;99.90;;;;;;12536212;28;20063;-37
2023/05/18 22:17:24;;;;;;;3.45;1.50;;;10.70;99.90;;;;;;12545229;28;20398;-37
2023/05/18 22:23:27;;;;;;;8.75;1.80;;;10.70;99.90;;;;;;12532411;28;20312;-39
2023/05/18 22:29:31;;;;;;;6.05;1.70;;;10.60;99.90;;;;;;12523065;28;20053;-38
2023/05/18 22:35:36;;;;;;;5.70;1.83;;;10.40;99.90;;;;;;12529419;28;20116;-37
2023/05/18 22:41:40;;;;;;;6.50;2.17;;;10.10;99.90;;;;;;12534073;28;20049;-37
2023/05/18 22:47:43;;;;;;;4.97;1.80;;;9.80;99.90;;;;;;12540714;28;20049;-38
2023/05/18 22:53:47;;;;;;;3.95;1.90;;;9.90;99.90;;;;;;12548483;28;20054;-38
2023/05/18 22:59:50;;;;;;;6.70;2.27;;;9.80;99.90;;;;;;12531450;28;20053;-37
2023/05/18 23:05:52;;;;;;;4.03;1.88;;;9.80;99.90;;;;;;12536567;28;20296;-38
2023/05/18 23:11:59;;;;;;;7.38;2.13;;;9.90;99.90;;;;;;12473321;28;20084;-37
2023/05/18 23:18:02;;;;;;;6.20;2.10;;;9.90;99.90;;;;;;12485662;28;20049;-37
2023/05/18 23:24:06;;;;;;;7.72;2.35;;;9.70;99.90;;;;;;12494770;28;20060;-37
2023/05/18 23:30:10;;;;;;;13.60;2.58;;;9.50;99.90;;;;;;12477060;28;20513;-37
2023/05/18 23:36:16;;;;;;;5.00;1.90;;;9.60;99.90;;;;;;12503581;28;20176;-38
2023/05/18 23:42:20;;;;;;;6.28;2.35;;;9.80;99.90;;;;;;12463265;28;20041;-38
2023/05/18 23:48:23;;;;;;;7.70;2.53;;;9.70;99.90;;;;;;12495975;28;20058;-38
2023/05/18 23:54:26;;;;;;;7.47;2.50;;;9.50;99.90;;;;;;12476294;28;20065;-38
